Time;durP1;ratioP1;P1;durP2;ratioP2;P2;SDS_P1;SDS_P2;PMS_P1;PMS_P2;Temp;Humidity;BMP_temperature;BMP_pressure;BME280_temperature;BME280_humidity;BME280_pressure;Samples;Min_cycle;Max_cycle;Signal;HPM_P1;HPM_P2
2020/12/13 00:00:12;;;;;;;82.60;29.37;;;3.60;99.90;;;;;;4863454;29;20188;-87
2020/12/13 00:02:38;;;;;;;136.27;45.27;;;1.40;99.90;;;;;;4863245;29;20192;-87
2020/12/13 00:05:03;;;;;;;107.00;34.47;;;1.40;99.90;;;;;;4880136;29;20185;-86
2020/12/13 00:07:29;;;;;;;167.70;50.30;;;3.40;99.90;;;;;;4863407;29;20691;-86
2020/12/13 00:09:55;;;;;;;167.93;47.83;;;1.40;99.90;;;;;;4863129;29;20267;-86
2020/12/13 00:12:21;;;;;;;78.53;29.00;;;3.20;99.90;;;;;;4880060;29;20226;-87
2020/12/13 00:14:46;;;;;;;70.43;25.70;;;1.40;99.90;;;;;;4863196;29;20655;-87
2020/12/13 00:17:12;;;;;;;76.07;26.67;;;2.10;99.90;;;;;;4863040;29;20186;-87
2020/12/13 00:19:37;;;;;;;74.97;26.60;;;2.00;99.90;;;;;;4862765;29;20174;-87
2020/12/13 00:22:03;;;;;;;73.53;25.37;;;1.40;99.90;;;;;;4886567;29;20198;-87
2020/12/13 00:24:29;;;;;;;76.73;27.60;;;3.70;99.90;;;;;;4887075;29;20253;-87
2020/12/13 00:26:54;;;;;;;48.27;20.40;;;1.30;99.90;;;;;;4881074;29;20202;-89
2020/12/13 00:29:22;;;;;;;64.97;26.23;;;3.70;99.90;;;;;;4848678;29;20245;-87
2020/12/13 00:31:50;;;;;;;50.20;19.23;;;1.30;99.90;;;;;;4862943;29;20213;-87
2020/12/13 00:34:16;;;;;;;64.33;27.30;;;3.60;99.90;;;;;;4879400;29;20194;-87
2020/12/13 00:36:42;;;;;;;48.70;20.27;;;2.70;99.90;;;;;;4863196;29;20192;-87
2020/12/13 00:39:07;;;;;;;49.47;18.67;;;3.10;99.90;;;;;;4879290;29;20208;-88
2020/12/13 00:41:33;;;;;;;46.60;19.70;;;1.30;99.90;;;;;;4862639;29;20245;-88
2020/12/13 00:43:59;;;;;;;55.87;20.83;;;1.60;99.90;;;;;;4862504;29;20277;-87
2020/12/13 00:46:25;;;;;;;71.27;25.93;;;3.00;99.90;;;;;;4862796;29;20185;-85
2020/12/13 00:48:51;;;;;;;51.27;18.80;;;2.20;99.90;;;;;;4847594;29;20197;-86
2020/12/13 00:51:24;;;;;;;44.17;18.53;;;2.40;99.90;;;;;;4847233;29;20217;-86
2020/12/13 00:53:50;;;;;;;47.80;20.30;;;1.30;99.90;;;;;;4879481;29;20184;-86
2020/12/13 00:56:15;;;;;;;44.03;18.57;;;1.30;99.90;;;;;;4862444;29;20200;-86
2020/12/13 00:58:41;;;;;;;50.23;19.93;;;2.20;99.90;;;;;;4879442;29;20221;-86
2020/12/13 01:01:07;;;;;;;46.77;19.40;;;2.00;99.90;;;;;;4879121;29;20244;-86
2020/12/13 01:03:32;;;;;;;63.83;24.60;;;1.50;99.90;;;;;;4862832;29;20239;-86
2020/12/13 01:05:58;;;;;;;55.30;23.60;;;2.90;99.90;;;;;;4862313;29;20514;-86
2020/12/13 01:08:23;;;;;;;51.90;22.07;;;1.30;99.90;;;;;;4879044;29;20185;-86
2020/12/13 01:10:49;;;;;;;50.63;20.70;;;3.10;99.90;;;;;;4862382;29;20224;-86
2020/12/13 01:13:15;;;;;;;52.47;22.10;;;1.40;99.90;;;;;;4862350;29;20197;-86
2020/12/13 01:15:40;;;;;;;55.27;22.37;;;3.40;99.90;;;;;;4847200;29;20197;-86
2020/12/13 01:18:06;;;;;;;52.93;22.67;;;2.20;99.90;;;;;;4846852;29;20639;-86
2020/12/13 01:20:31;;;;;;;51.67;21.40;;;3.70;99.90;;;;;;4862886;29;20265;-87
2020/12/13 01:22:57;;;;;;;48.43;20.23;;;2.10;99.90;;;;;;4878946;29;20192;-87
2020/12/13 01:25:23;;;;;;;49.27;21.67;;;3.40;99.90;;;;;;4879280;29;20189;-86
2020/12/13 01:27:48;;;;;;;55.60;20.70;;;2.40;99.90;;;;;;4862519;29;20217;-86
2020/12/13 01:30:14;;;;;;;54.20;21.23;;;1.40;99.90;;;;;;4863204;29;20343;-86
2020/12/13 01:32:40;;;;;;;65.23;27.03;;;1.30;99.90;;;;;;4865903;29;20227;-86
2020/12/13 01:35:08;;;;;;;56.17;22.00;;;3.10;99.90;;;;;;4882494;29;20188;-86
2020/12/13 01:37:34;;;;;;;57.77;22.67;;;3.30;99.90;;;;;;4882775;29;20188;-86
2020/12/13 01:39:59;;;;;;;55.27;21.50;;;3.10;99.90;;;;;;4865543;29;20191;-86
2020/12/13 01:42:25;;;;;;;64.63;25.53;;;2.90;99.90;;;;;;4862498;29;20234;-86
2020/12/13 01:44:51;;;;;;;65.57;24.53;;;2.80;99.90;;;;;;4864127;29;20198;-86
2020/12/13 01:47:18;;;;;;;62.83;24.07;;;2.30;99.90;;;;;;4862656;29;20643;-86
2020/12/13 01:49:46;;;;;;;82.30;28.27;;;2.90;99.90;;;;;;4863992;29;20184;-86
2020/12/13 01:55:06;;;;;;;53.77;23.07;;;2.30;99.90;;;;;;4864010;29;20213;-86
2020/12/13 01:57:39;;;;;;;66.53;24.77;;;1.20;99.90;;;;;;4862714;29;20627;-87
2020/12/13 02:00:11;;;;;;;52.33;21.47;;;1.20;99.90;;;;;;4863448;29;20532;-86
2020/12/13 02:02:52;;;;;;;80.60;28.10;;;1.30;99.90;;;;;;4863492;29;20197;-86
2020/12/13 02:05:20;;;;;;;90.87;31.97;;;1.20;99.90;;;;;;4863455;29;20525;-86
2020/12/13 02:07:48;;;;;;;82.90;30.50;;;2.70;99.90;;;;;;4862417;29;20187;-86
2020/12/13 02:10:14;;;;;;;70.30;28.60;;;2.90;99.90;;;;;;4863334;29;20176;-86
2020/12/13 02:12:40;;;;;;;60.83;22.70;;;1.30;99.90;;;;;;4846963;29;20234;-86
2020/12/13 02:15:07;;;;;;;60.53;26.00;;;3.20;99.90;;;;;;4861881;29;20266;-86
2020/12/13 02:17:36;;;;;;;58.57;24.50;;;1.20;99.90;;;;;;4862297;29;20179;-85
2020/12/13 02:20:13;;;;;;;72.00;26.87;;;1.20;99.90;;;;;;4862919;29;20520;-86
2020/12/13 02:22:47;;;;;;;53.97;22.53;;;2.50;99.90;;;;;;4863522;29;20616;-86
2020/12/13 02:25:15;;;;;;;53.67;21.53;;;1.20;99.90;;;;;;4863149;29;20265;-86
2020/12/13 02:27:41;;;;;;;50.87;21.40;;;1.60;99.90;;;;;;4862279;29;20194;-86
2020/12/13 02:30:08;;;;;;;51.67;22.13;;;1.40;99.90;;;;;;4863034;29;20278;-86
2020/12/13 02:32:34;;;;;;;45.80;19.60;;;3.00;99.90;;;;;;4861901;29;20222;-86
2020/12/13 02:35:00;;;;;;;50.47;21.50;;;2.90;99.90;;;;;;4846372;29;20274;-87
2020/12/13 02:37:27;;;;;;;54.50;23.97;;;1.90;99.90;;;;;;4861639;29;20289;-85
2020/12/13 02:39:53;;;;;;;39.83;18.97;;;2.20;99.90;;;;;;4863134;29;20656;-86
2020/12/13 02:42:18;;;;;;;49.67;20.27;;;1.20;99.90;;;;;;4877179;29;20237;-86
2020/12/13 02:44:44;;;;;;;45.13;18.17;;;1.20;99.90;;;;;;4881572;29;20670;-86
2020/12/13 02:47:10;;;;;;;47.53;21.13;;;3.40;99.90;;;;;;4881017;29;20190;-85
2020/12/13 02:49:39;;;;;;;52.63;19.80;;;2.70;99.90;;;;;;4881562;29;20655;-85
2020/12/13 02:52:05;;;;;;;59.03;24.20;;;1.20;99.90;;;;;;4881115;29;20272;-86
2020/12/13 02:54:30;;;;;;;43.90;19.97;;;1.10;99.90;;;;;;4864635;29;20186;-85
2020/12/13 02:56:56;;;;;;;43.80;20.20;;;1.10;99.90;;;;;;4881675;29;20221;-85
2020/12/13 02:59:21;;;;;;;41.10;19.20;;;1.10;99.90;;;;;;4848994;29;20592;-85
2020/12/13 03:01:47;;;;;;;50.73;22.33;;;1.60;99.90;;;;;;4849236;29;20547;-85
2020/12/13 03:04:13;;;;;;;42.47;18.90;;;1.10;99.90;;;;;;4864288;29;20249;-86
2020/12/13 03:06:38;;;;;;;45.93;19.00;;;2.80;99.90;;;;;;4881207;29;20182;-85
2020/12/13 03:09:04;;;;;;;47.40;19.67;;;1.10;99.90;;;;;;4849165;29;20574;-86
2020/12/13 03:11:29;;;;;;;47.77;20.50;;;3.10;99.90;;;;;;4864890;29;20213;-86
2020/12/13 03:13:55;;;;;;;41.77;19.03;;;1.10;99.90;;;;;;4849283;29;20194;-86
2020/12/13 03:16:21;;;;;;;43.00;18.73;;;2.90;99.90;;;;;;4864319;29;20195;-86
2020/12/13 03:18:46;;;;;;;45.97;18.67;;;1.50;99.90;;;;;;4881022;29;20651;-86
2020/12/13 03:21:12;;;;;;;40.13;18.13;;;1.10;99.90;;;;;;4864311;29;20260;-86
2020/12/13 03:23:38;;;;;;;45.27;20.80;;;1.20;99.90;;;;;;4848964;29;20187;-86
2020/12/13 03:26:04;;;;;;;50.47;21.20;;;2.90;99.90;;;;;;4880849;29;20213;-88
2020/12/13 03:28:29;;;;;;;48.30;20.27;;;2.50;99.90;;;;;;4864302;29;20266;-86
2020/12/13 03:30:55;;;;;;;56.17;22.53;;;2.10;99.90;;;;;;4848655;29;20224;-86
2020/12/13 03:33:21;;;;;;;62.63;26.83;;;2.60;99.90;;;;;;4848419;29;20601;-86
2020/12/13 03:35:47;;;;;;;57.53;23.13;;;2.20;99.90;;;;;;4864017;29;20216;-86
2020/12/13 03:38:12;;;;;;;47.57;19.90;;;1.50;99.90;;;;;;4863650;29;20193;-86
2020/12/13 03:40:38;;;;;;;54.03;22.10;;;1.10;99.90;;;;;;4848320;29;20251;-86
2020/12/13 03:43:04;;;;;;;52.93;21.63;;;1.50;99.90;;;;;;4863499;29;20194;-88
2020/12/13 03:45:30;;;;;;;46.90;20.23;;;1.70;99.90;;;;;;4863952;29;20284;-86
2020/12/13 03:47:55;;;;;;;48.00;21.73;;;1.20;99.90;;;;;;4864208;29;20191;-87
2020/12/13 03:50:21;;;;;;;60.07;25.97;;;1.10;99.90;;;;;;4863501;29;20196;-88
2020/12/13 03:52:47;;;;;;;56.63;23.23;;;1.90;99.90;;;;;;4880384;29;20238;-86
2020/12/13 03:55:12;;;;;;;47.70;20.43;;;1.10;99.90;;;;;;4863341;29;20658;-87
2020/12/13 03:57:38;;;;;;;43.77;19.73;;;2.90;99.90;;;;;;4863783;29;20260;-87
2020/12/13 04:00:05;;;;;;;50.33;20.10;;;1.80;99.90;;;;;;4879965;29;20185;-87
2020/12/13 04:02:31;;;;;;;48.90;20.23;;;2.90;99.90;;;;;;4848451;29;20207;-87
2020/12/13 04:04:57;;;;;;;45.47;20.57;;;3.60;99.90;;;;;;4863552;29;20201;-88
2020/12/13 04:07:22;;;;;;;62.30;24.47;;;3.30;99.90;;;;;;4879814;29;20195;-86
2020/12/13 04:09:48;;;;;;;70.17;26.80;;;3.20;99.90;;;;;;4848030;29;20210;-87
2020/12/13 04:12:14;;;;;;;45.40;20.00;;;3.30;99.90;;;;;;4847670;29;20257;-88
2020/12/13 04:14:39;;;;;;;42.93;19.03;;;3.80;99.90;;;;;;4879971;29;20648;-87
2020/12/13 04:17:05;;;;;;;52.90;20.63;;;3.60;99.90;;;;;;4863266;29;20191;-86
2020/12/13 04:19:35;;;;;;;48.27;19.87;;;1.20;99.90;;;;;;4847705;29;20643;-85
2020/12/13 04:22:03;;;;;;;42.13;19.77;;;1.90;99.90;;;;;;4880254;29;20255;-87
2020/12/13 04:24:29;;;;;;;44.30;19.40;;;1.20;99.90;;;;;;4863655;29;20201;-86
2020/12/13 04:26:55;;;;;;;43.90;19.47;;;3.40;99.90;;;;;;4863280;29;20582;-86
2020/12/13 04:29:20;;;;;;;42.37;20.37;;;1.10;99.90;;;;;;4862880;29;20191;-86
2020/12/13 04:31:46;;;;;;;45.70;18.83;;;2.40;99.90;;;;;;4846342;29;20217;-85
2020/12/13 04:34:12;;;;;;;52.00;20.80;;;1.10;99.90;;;;;;4862663;29;20550;-86
2020/12/13 04:36:37;;;;;;;48.27;21.93;;;1.10;99.90;;;;;;4847007;29;20226;-86
2020/12/13 04:39:03;;;;;;;54.77;20.77;;;1.10;99.90;;;;;;4846643;29;20812;-86
2020/12/13 04:41:29;;;;;;;49.27;20.63;;;1.10;99.90;;;;;;4858400;29;20707;-85
2020/12/13 04:43:54;;;;;;;46.70;19.57;;;2.90;99.90;;;;;;4859538;29;20191;-86
2020/12/13 04:46:28;;;;;;;50.87;21.33;;;2.90;99.90;;;;;;4858510;29;20193;-87
2020/12/13 04:48:54;;;;;;;43.03;18.10;;;3.20;99.90;;;;;;4860136;29;20685;-86
2020/12/13 04:51:25;;;;;;;46.70;20.43;;;3.20;99.90;;;;;;4858633;29;20267;-86
2020/12/13 04:54:04;;;;;;;57.33;23.73;;;3.10;99.90;;;;;;4859991;29;20261;-86
2020/12/13 04:56:37;;;;;;;54.37;21.87;;;1.10;99.90;;;;;;4858235;29;20186;-86
2020/12/13 04:59:06;;;;;;;39.47;18.90;;;2.50;99.90;;;;;;4859459;29;20636;-86
2020/12/13 05:01:32;;;;;;;50.33;19.53;;;2.70;99.90;;;;;;4858379;29;20359;-86
2020/12/13 05:03:58;;;;;;;48.57;19.33;;;1.70;99.90;;;;;;4859597;29;20634;-86
2020/12/13 05:06:25;;;;;;;44.40;18.47;;;1.00;99.90;;;;;;4857797;29;20196;-86
2020/12/13 05:08:52;;;;;;;47.70;19.03;;;3.00;99.90;;;;;;4859838;29;20186;-86
2020/12/13 05:11:17;;;;;;;47.73;20.90;;;1.10;99.90;;;;;;4858963;29;20227;-86
2020/12/13 05:13:43;;;;;;;41.90;18.60;;;1.10;99.90;;;;;;4858286;29;20190;-86
2020/12/13 05:16:10;;;;;;;38.90;16.87;;;2.40;99.90;;;;;;4858688;29;20269;-87
2020/12/13 05:18:40;;;;;;;40.70;18.10;;;2.80;99.90;;;;;;4843164;29;20189;-86
2020/12/13 05:21:06;;;;;;;36.53;16.23;;;2.20;99.90;;;;;;4859787;29;20638;-87
2020/12/13 05:23:33;;;;;;;40.83;18.57;;;1.40;99.90;;;;;;4857604;29;20194;-86
2020/12/13 05:25:59;;;;;;;40.03;17.97;;;1.30;99.90;;;;;;4858457;29;20265;-87
2020/12/13 05:28:25;;;;;;;38.03;17.30;;;3.30;99.90;;;;;;4858204;29;20229;-86
2020/12/13 05:30:52;;;;;;;37.07;16.13;;;1.50;99.90;;;;;;4859298;29;20222;-86
2020/12/13 05:36:02;;;;;;;42.50;16.67;;;1.10;99.90;;;;;;4859382;29;20188;-86
2020/12/13 05:38:33;;;;;;;115.73;53.03;;;3.10;99.90;;;;;;4858850;29;20234;-86
2020/12/13 05:40:59;;;;;;;82.37;33.80;;;2.60;99.90;;;;;;4858135;29;20232;-87
2020/12/13 05:43:27;;;;;;;45.73;18.80;;;2.40;99.90;;;;;;4859284;29;20190;-85
2020/12/13 05:51:11;;;;;;;42.63;18.87;;;2.90;99.90;;;;;;4857815;29;20741;-86
2020/12/13 05:53:37;;;;;;;38.60;16.70;;;3.70;99.90;;;;;;4859539;29;20270;-86
2020/12/13 05:56:08;;;;;;;38.07;16.63;;;2.40;99.90;;;;;;4842943;29;20624;-86
2020/12/13 05:58:35;;;;;;;37.20;16.23;;;1.90;99.90;;;;;;4858016;29;20186;-86
2020/12/13 06:01:04;;;;;;;40.03;16.13;;;2.60;99.90;;;;;;4858182;29;20217;-86
2020/12/13 06:03:38;;;;;;;43.13;16.33;;;2.70;99.90;;;;;;4856971;29;20278;-85
2020/12/13 06:06:09;;;;;;;42.67;16.90;;;1.10;99.90;;;;;;4858322;29;20188;-86
2020/12/13 06:09:04;;;;;;;41.57;16.37;;;3.10;99.90;;;;;;4857789;29;20540;-86
2020/12/13 06:11:41;;;;;;;37.93;16.47;;;1.10;99.90;;;;;;4856004;29;20230;-85
2020/12/13 06:14:14;;;;;;;39.10;15.33;;;1.10;99.90;;;;;;4859209;29;20251;-85
2020/12/13 06:16:40;;;;;;;34.93;15.80;;;1.10;99.90;;;;;;4858955;29;20257;-86
2020/12/13 06:19:07;;;;;;;37.93;16.40;;;1.70;99.90;;;;;;4861375;29;20266;-87
2020/12/13 06:21:33;;;;;;;34.17;15.47;;;3.40;99.90;;;;;;4862124;29;20989;-87
2020/12/13 06:24:00;;;;;;;33.63;16.07;;;1.10;99.90;;;;;;4862461;29;20221;-86
2020/12/13 06:26:26;;;;;;;27.03;13.33;;;3.80;99.90;;;;;;4862456;29;20636;-86
2020/12/13 06:28:53;;;;;;;31.93;14.67;;;1.10;99.90;;;;;;4860583;29;20273;-87
2020/12/13 06:31:19;;;;;;;34.03;15.20;;;3.50;99.90;;;;;;4860962;29;20224;-86
2020/12/13 06:33:45;;;;;;;31.97;14.20;;;1.10;99.90;;;;;;4862971;29;20281;-89
2020/12/13 06:36:12;;;;;;;30.33;14.23;;;2.60;99.90;;;;;;4861390;29;20660;-86
2020/12/13 06:38:40;;;;;;;30.33;14.50;;;1.00;99.90;;;;;;4854640;29;20330;-87
2020/12/13 06:41:10;;;;;;;37.10;15.20;;;2.10;99.90;;;;;;4883616;29;20247;-86
2020/12/13 06:43:54;;;;;;;29.70;15.60;;;1.90;99.90;;;;;;4891309;29;20175;-84
2020/12/13 06:46:21;;;;;;;30.13;12.97;;;3.50;99.90;;;;;;4870143;29;20190;-89
2020/12/13 06:48:47;;;;;;;33.40;13.90;;;1.70;99.90;;;;;;4873277;29;20656;-88
2020/12/13 06:51:18;;;;;;;32.83;14.43;;;3.40;99.90;;;;;;4879114;29;20210;-87
2020/12/13 06:53:44;;;;;;;30.60;13.60;;;2.30;99.90;;;;;;4873185;29;20194;-86
2020/12/13 06:56:14;;;;;;;32.93;15.50;;;3.40;99.90;;;;;;4878925;29;20182;-86
2020/12/13 06:58:44;;;;;;;37.93;17.20;;;3.10;99.90;;;;;;4879874;29;20182;-85
2020/12/13 07:01:20;;;;;;;40.47;17.63;;;2.00;99.90;;;;;;4863822;29;20188;-88
2020/12/13 07:03:46;;;;;;;54.73;22.43;;;1.10;99.90;;;;;;4878674;29;20197;-90
2020/12/13 07:06:27;;;;;;;48.50;20.87;;;1.50;99.90;;;;;;4861438;29;20187;-89
2020/12/13 07:09:01;;;;;;;39.27;18.47;;;3.90;99.90;;;;;;4869373;29;20186;-90
2020/12/13 07:11:29;;;;;;;35.97;16.20;;;2.60;99.90;;;;;;4875457;29;20263;-83
2020/12/13 07:14:28;;;;;;;34.10;15.57;;;1.10;99.90;;;;;;4876605;29;20194;-85
2020/12/13 07:17:04;;;;;;;46.87;19.33;;;1.40;99.90;;;;;;4859679;29;20182;-84
2020/12/13 07:19:35;;;;;;;38.90;16.33;;;1.50;99.90;;;;;;4876073;29;20170;-86
2020/12/13 07:22:12;;;;;;;35.07;17.03;;;2.10;99.90;;;;;;4870057;29;20180;-87
2020/12/13 07:24:39;;;;;;;31.03;15.20;;;1.60;99.90;;;;;;4861160;29;20203;-89
2020/12/13 07:27:05;;;;;;;23.30;13.37;;;2.90;99.90;;;;;;4879420;29;20199;-89
2020/12/13 07:29:32;;;;;;;25.30;12.53;;;3.10;99.90;;;;;;4884387;29;20185;-89
2020/12/13 07:32:02;;;;;;;27.03;13.77;;;1.30;99.90;;;;;;4897584;29;20205;-89
2020/12/13 07:34:29;;;;;;;25.47;13.53;;;1.30;99.90;;;;;;4881583;29;20203;-89
2020/12/13 07:36:55;;;;;;;21.13;11.90;;;1.40;99.90;;;;;;4876699;29;20656;-90
2020/12/13 07:39:22;;;;;;;19.77;11.13;;;3.00;99.90;;;;;;4879840;29;20201;-88
2020/12/13 07:41:48;;;;;;;23.70;11.33;;;3.00;99.90;;;;;;4878427;29;20236;-88
2020/12/13 07:44:18;;;;;;;28.53;12.23;;;3.70;99.90;;;;;;4880051;29;20182;-88
2020/12/13 07:46:44;;;;;;;25.97;12.43;;;2.70;99.90;;;;;;4863209;29;20207;-85
2020/12/13 07:49:11;;;;;;;23.67;11.60;;;2.80;99.90;;;;;;4863474;29;20654;-87
2020/12/13 07:51:40;;;;;;;28.90;15.77;;;1.10;99.90;;;;;;4879463;29;20588;-87
2020/12/13 07:54:13;;;;;;;31.73;17.20;;;1.10;99.90;;;;;;4879903;29;20294;-87
2020/12/13 07:56:40;;;;;;;52.77;19.97;;;1.10;99.90;;;;;;4852510;29;20608;-87
2020/12/13 07:59:09;;;;;;;34.73;16.03;;;2.80;99.90;;;;;;4868372;29;20663;-85
2020/12/13 08:01:35;;;;;;;27.20;15.07;;;1.10;99.90;;;;;;4868069;29;20186;-86
2020/12/13 08:04:00;;;;;;;27.57;14.47;;;1.10;99.90;;;;;;4870355;29;20194;-88
2020/12/13 08:06:26;;;;;;;33.40;16.23;;;1.50;99.90;;;;;;4871146;29;20197;-86
2020/12/13 08:08:53;;;;;;;38.13;17.10;;;1.20;99.90;;;;;;4854290;29;20222;-88
2020/12/13 08:11:19;;;;;;;35.17;16.77;;;1.20;99.90;;;;;;4868085;29;20680;-88
2020/12/13 08:13:52;;;;;;;40.93;18.77;;;1.70;99.90;;;;;;4870178;29;20268;-87
2020/12/13 08:16:18;;;;;;;31.53;15.00;;;1.20;99.90;;;;;;4869578;29;20233;-89
2020/12/13 08:18:47;;;;;;;28.97;14.57;;;1.50;99.90;;;;;;4854916;29;20181;-86
2020/12/13 08:21:18;;;;;;;33.13;16.47;;;1.50;99.90;;;;;;4868681;29;20266;-85
2020/12/13 08:23:47;;;;;;;34.17;17.27;;;1.20;99.90;;;;;;4868906;29;20171;-86
2020/12/13 08:26:14;;;;;;;30.10;14.90;;;1.20;99.90;;;;;;4869462;29;20183;-86
2020/12/13 08:28:41;;;;;;;41.17;16.80;;;2.90;99.90;;;;;;4868158;29;20181;-87
2020/12/13 08:31:13;;;;;;;40.93;17.70;;;1.70;99.90;;;;;;4869485;29;20304;-87
2020/12/13 08:33:39;;;;;;;43.27;20.37;;;2.40;99.90;;;;;;4877605;29;20320;-87
2020/12/13 08:36:18;;;;;;;39.10;19.20;;;2.10;99.90;;;;;;4862290;29;20186;-88
2020/12/13 08:38:44;;;;;;;41.10;19.50;;;2.40;99.90;;;;;;4878829;29;20628;-84
2020/12/13 08:41:12;;;;;;;38.50;18.03;;;2.70;99.90;;;;;;4881573;29;20303;-87
2020/12/13 08:43:38;;;;;;;46.87;20.83;;;2.60;99.90;;;;;;4896672;29;20229;-88
2020/12/13 08:46:03;;;;;;;32.83;15.13;;;2.20;99.90;;;;;;4865227;29;20237;-87
2020/12/13 08:48:29;;;;;;;41.77;16.83;;;1.20;99.90;;;;;;4864636;29;20192;-87
2020/12/13 08:51:11;;;;;;;35.90;15.97;;;3.00;99.90;;;;;;4879980;29;20217;-88
2020/12/13 08:53:38;;;;;;;33.60;15.80;;;1.10;99.90;;;;;;4880450;29;20189;-88
2020/12/13 08:56:14;;;;;;;37.83;19.03;;;3.80;99.90;;;;;;4862524;29;20238;-88
2020/12/13 08:58:51;;;;;;;29.90;14.43;;;2.60;99.90;;;;;;4876811;29;20170;-88
2020/12/13 09:01:19;;;;;;;24.90;12.70;;;2.10;99.90;;;;;;4877100;29;20289;-89
2020/12/13 09:03:44;;;;;;;28.20;13.83;;;1.10;99.90;;;;;;4860412;29;20189;-87
2020/12/13 09:06:10;;;;;;;29.67;15.17;;;3.50;99.90;;;;;;4829663;29;20193;-88
2020/12/13 09:08:35;;;;;;;29.23;15.37;;;1.10;99.90;;;;;;4864306;29;20199;-87
2020/12/13 09:11:04;;;;;;;22.40;11.43;;;1.70;99.90;;;;;;4877385;29;20215;-89
2020/12/13 09:13:34;;;;;;;27.70;13.87;;;3.00;99.90;;;;;;4877668;29;20223;-90
2020/12/13 09:16:00;;;;;;;30.77;14.30;;;1.10;99.90;;;;;;4851010;29;20193;-90
2020/12/13 09:18:25;;;;;;;24.97;13.80;;;1.10;99.90;;;;;;4878720;29;20771;-89
2020/12/13 09:20:57;;;;;;;24.87;14.03;;;3.20;99.90;;;;;;4879011;29;20715;-88
2020/12/13 09:23:23;;;;;;;33.03;16.13;;;3.20;99.90;;;;;;4896105;29;20297;-88
2020/12/13 09:25:51;;;;;;;27.63;14.10;;;1.70;99.90;;;;;;4865471;29;20662;-89
2020/12/13 09:28:17;;;;;;;29.57;14.33;;;3.60;99.90;;;;;;4896393;29;20197;-85
2020/12/13 09:30:44;;;;;;;28.80;14.00;;;2.80;99.90;;;;;;4897061;29;20181;-88
2020/12/13 09:33:11;;;;;;;27.30;14.20;;;1.10;99.90;;;;;;4895576;29;20191;-89
2020/12/13 09:35:36;;;;;;;32.43;15.37;;;2.80;99.90;;;;;;4896134;29;20195;-89
2020/12/13 09:38:05;;;;;;;30.03;14.47;;;2.80;99.90;;;;;;4897938;29;20561;-89
2020/12/13 09:40:32;;;;;;;28.10;12.90;;;2.80;99.90;;;;;;4896360;29;20245;-88
2020/12/13 09:42:58;;;;;;;31.00;14.57;;;1.60;99.90;;;;;;4880731;29;20253;-88
2020/12/13 09:45:24;;;;;;;20.87;11.63;;;3.60;99.90;;;;;;4898007;29;20215;-91
2020/12/13 09:47:55;;;;;;;28.17;14.40;;;1.20;99.90;;;;;;4896678;29;20211;-89
2020/12/13 09:50:25;;;;;;;23.00;12.00;;;3.70;99.90;;;;;;4897521;29;20244;-91
2020/12/13 09:52:51;;;;;;;25.57;13.10;;;1.10;99.90;;;;;;4899849;29;20217;-88
2020/12/13 09:55:17;;;;;;;27.77;13.70;;;2.80;99.90;;;;;;4884434;29;20187;-90
2020/12/13 09:57:42;;;;;;;34.93;16.20;;;1.40;99.90;;;;;;4884101;29;20208;-88
2020/12/13 10:00:08;;;;;;;43.40;16.77;;;2.00;99.90;;;;;;4901080;29;20702;-89
2020/12/13 10:02:34;;;;;;;31.37;15.23;;;2.10;99.90;;;;;;4900698;29;20545;-88
2020/12/13 10:05:02;;;;;;;42.80;18.57;;;2.90;99.90;;;;;;4900738;29;20177;-88
2020/12/13 10:08:55;;;;;;;40.43;16.97;;;1.10;99.90;;;;;;4899379;29;20224;-89
2020/12/13 10:10:16;;;;;;;39.70;17.57;;;1.20;99.90;;;;;;4899422;29;20194;-88
2020/12/13 10:12:42;;;;;;;44.87;19.50;;;1.20;99.90;;;;;;4868227;29;20688;-89
2020/12/13 10:15:10;;;;;;;49.23;22.30;;;1.20;99.90;;;;;;4883870;29;20647;-90
2020/12/13 10:17:36;;;;;;;42.97;20.27;;;3.40;99.90;;;;;;4883643;29;20193;-90
2020/12/13 10:20:01;;;;;;;40.10;17.03;;;3.60;99.90;;;;;;4896853;29;20200;-90
2020/12/13 10:22:27;;;;;;;31.77;17.03;;;3.60;99.90;;;;;;4872480;29;20193;-91
2020/12/13 10:24:53;;;;;;;39.37;17.20;;;1.40;99.90;;;;;;4863327;29;20181;-89
2020/12/13 10:27:18;;;;;;;70.73;29.73;;;1.20;99.90;;;;;;4856371;29;20280;-93
2020/12/13 10:29:45;;;;;;;65.57;20.40;;;3.70;99.90;;;;;;4879646;29;20267;-88
2020/12/13 10:32:11;;;;;;;69.90;20.97;;;1.20;99.90;;;;;;4887725;29;20208;-88
2020/12/13 10:34:37;;;;;;;64.73;20.83;;;2.70;99.90;;;;;;4882783;29;20213;-87
2020/12/13 10:37:02;;;;;;;43.23;18.17;;;1.10;99.90;;;;;;4899868;29;20618;-89
2020/12/13 10:39:28;;;;;;;31.53;14.93;;;2.00;99.90;;;;;;4882948;29;20188;-89
2020/12/13 10:41:55;;;;;;;30.90;13.70;;;3.20;99.90;;;;;;4882288;29;20241;-89
2020/12/13 10:44:21;;;;;;;27.00;14.07;;;2.90;99.90;;;;;;4882842;29;20193;-88
2020/12/13 10:46:47;;;;;;;32.47;14.13;;;2.20;99.90;;;;;;4880471;29;20196;-88
2020/12/13 10:49:13;;;;;;;39.03;18.30;;;1.10;99.90;;;;;;4850610;29;20187;-89
2020/12/13 10:51:38;;;;;;;35.80;16.20;;;1.10;99.90;;;;;;4882368;29;20216;-88
2020/12/13 10:54:04;;;;;;;50.53;21.13;;;1.60;99.90;;;;;;4882295;29;20189;-88
2020/12/13 10:56:30;;;;;;;42.00;19.67;;;1.20;99.90;;;;;;4882191;29;20280;-88
2020/12/13 10:58:55;;;;;;;46.73;19.13;;;3.00;99.90;;;;;;4866972;29;20186;-90
2020/12/13 11:01:21;;;;;;;37.50;15.63;;;2.10;99.90;;;;;;4866822;29;20224;-88
2020/12/13 11:03:46;;;;;;;33.20;15.17;;;1.50;99.90;;;;;;4881397;29;20191;-87
2020/12/13 11:06:13;;;;;;;37.00;16.53;;;1.20;99.90;;;;;;4898818;29;20192;-89
2020/12/13 11:08:39;;;;;;;33.23;15.60;;;3.10;99.90;;;;;;4882555;29;20181;-89
2020/12/13 11:11:05;;;;;;;36.93;17.57;;;1.10;99.90;;;;;;4899353;29;20212;-88
2020/12/13 11:13:31;;;;;;;34.03;17.67;;;1.10;99.90;;;;;;4882379;29;20235;-88
2020/12/13 11:15:57;;;;;;;24.70;13.00;;;2.60;99.90;;;;;;4865070;29;20695;-87
2020/12/13 11:18:23;;;;;;;27.27;13.00;;;2.90;99.90;;;;;;4880279;29;20216;-88
2020/12/13 11:20:48;;;;;;;29.70;15.77;;;2.30;99.90;;;;;;4863231;29;20631;-88
2020/12/13 11:23:14;;;;;;;66.50;27.27;;;1.10;99.90;;;;;;4853315;29;20286;-87
2020/12/13 11:25:40;;;;;;;47.00;21.50;;;1.10;99.90;;;;;;4863240;29;20253;-87
2020/12/13 11:28:06;;;;;;;50.57;23.10;;;1.20;99.90;;;;;;4863345;29;20648;-88
2020/12/13 11:30:33;;;;;;;33.60;17.70;;;3.30;99.90;;;;;;4863280;29;20182;-87
2020/12/13 11:32:59;;;;;;;32.77;17.93;;;1.20;99.90;;;;;;4886194;29;20670;-90
2020/12/13 11:35:25;;;;;;;38.70;17.80;;;2.80;99.90;;;;;;4898303;29;20715;-88
2020/12/13 11:37:50;;;;;;;38.77;19.23;;;1.30;99.90;;;;;;4898411;29;20359;-88
2020/12/13 11:40:16;;;;;;;29.80;15.13;;;3.30;99.90;;;;;;4889863;29;20194;-88
2020/12/13 11:42:42;;;;;;;27.73;15.43;;;1.70;99.90;;;;;;4873288;29;20237;-88
2020/12/13 11:45:08;;;;;;;33.73;16.63;;;3.30;99.90;;;;;;4892875;29;20207;-86
2020/12/13 11:47:34;;;;;;;36.83;16.80;;;3.70;99.90;;;;;;4891188;29;20715;-88
2020/12/13 11:50:00;;;;;;;36.90;18.07;;;2.90;99.90;;;;;;4899215;29;20213;-88
2020/12/13 11:52:26;;;;;;;39.70;18.10;;;1.30;99.90;;;;;;4882996;29;20215;-87
2020/12/13 11:54:52;;;;;;;40.50;20.57;;;1.30;99.90;;;;;;4881937;29;20201;-87
2020/12/13 11:57:17;;;;;;;41.57;19.23;;;1.30;99.90;;;;;;4851628;29;20193;-89
2020/12/13 11:59:44;;;;;;;46.40;21.03;;;1.30;99.90;;;;;;4851223;29;20212;-89
2020/12/13 12:02:09;;;;;;;45.70;21.80;;;3.90;99.90;;;;;;4881836;29;20197;-87
2020/12/13 12:04:35;;;;;;;33.57;16.37;;;3.20;99.90;;;;;;4866108;29;20252;-87
2020/12/13 12:07:02;;;;;;;29.50;14.63;;;2.80;99.90;;;;;;4882126;29;20742;-89
2020/12/13 12:09:28;;;;;;;31.20;14.83;;;2.30;99.90;;;;;;4860391;29;20199;-90
2020/12/13 12:11:53;;;;;;;33.87;16.83;;;1.40;99.90;;;;;;4879377;29;20223;-90
2020/12/13 12:14:19;;;;;;;38.87;15.97;;;3.00;99.90;;;;;;4862186;29;20194;-90
2020/12/13 12:16:45;;;;;;;29.00;14.23;;;2.10;99.90;;;;;;4879309;29;20189;-88
2020/12/13 12:19:11;;;;;;;34.13;19.07;;;1.90;99.90;;;;;;4865755;29;20281;-89
2020/12/13 12:21:46;;;;;;;33.67;19.40;;;1.60;99.90;;;;;;4880720;29;20646;-90
2020/12/13 12:24:16;;;;;;;62.77;34.50;;;2.40;99.90;;;;;;4898514;29;20198;-89
2020/12/13 12:26:42;;;;;;;61.40;32.73;;;2.70;99.90;;;;;;4892770;29;20193;-90
2020/12/13 12:29:07;;;;;;;42.37;19.93;;;1.30;99.90;;;;;;4872998;29;20336;-88
2020/12/13 12:31:33;;;;;;;35.47;16.77;;;1.40;99.90;;;;;;4866115;29;20295;-89
2020/12/13 12:33:59;;;;;;;33.97;14.50;;;1.30;99.90;;;;;;4881488;29;20195;-88
2020/12/13 12:36:27;;;;;;;34.13;15.53;;;1.30;99.90;;;;;;4889596;29;20197;-88
2020/12/13 12:38:53;;;;;;;47.00;22.30;;;1.60;99.90;;;;;;4879336;29;20183;-89
2020/12/13 12:41:20;;;;;;;43.17;19.47;;;1.30;99.90;;;;;;4879404;29;20593;-90
2020/12/13 12:43:47;;;;;;;46.87;22.60;;;3.20;99.90;;;;;;4885616;29;20190;-91
2020/12/13 12:46:14;;;;;;;43.07;21.57;;;3.30;99.90;;;;;;4886038;29;20197;-90